Time;durP1;ratioP1;P1;durP2;ratioP2;P2;SDS_P1;SDS_P2;PMS_P1;PMS_P2;Temp;Humidity;BMP_temperature;BMP_pressure;BME280_temperature;BME280_humidity;BME280_pressure;Samples;Min_cycle;Max_cycle;Signal;HPM_P1;HPM_P2
2023/10/01 00:01:00;;;;;;;31.65;10.80;;;12.70;99.90;;;;;;4890246;29;20457;-64
2023/10/01 00:03:27;;;;;;;28.92;11.07;;;12.70;99.90;;;;;;4898165;29;20559;-64
2023/10/01 00:05:55;;;;;;;;;;;12.70;99.90;;;;;;4885377;29;20045;-64
2023/10/01 00:08:22;;;;;;;27.75;10.15;;;12.80;99.90;;;;;;4897653;29;20329;-64
2023/10/01 00:10:49;;;;;;;29.50;10.20;;;12.80;99.90;;;;;;4896339;29;20072;-64
2023/10/01 00:13:15;;;;;;;28.40;9.98;;;12.80;99.90;;;;;;4887222;29;20048;-64
2023/10/01 00:15:43;;;;;;;;;;;12.80;99.90;;;;;;4891564;29;20417;-64
2023/10/01 00:18:10;;;;;;;32.10;11.13;;;12.80;99.90;;;;;;4897329;29;19975;-64
2023/10/01 00:20:37;;;;;;;;;;;12.80;99.90;;;;;;4898207;29;20036;-64
2023/10/01 00:23:04;;;;;;;25.20;9.75;;;12.90;99.90;;;;;;4894258;29;20301;-64
2023/10/01 00:25:32;;;;;;;26.23;10.32;;;12.90;99.90;;;;;;4897843;29;20078;-64
2023/10/01 00:28:01;;;;;;;29.63;11.32;;;12.80;99.90;;;;;;4889014;29;20043;-64
2023/10/01 00:30:31;;;;;;;26.60;11.30;;;12.80;99.90;;;;;;4889725;29;20558;-64
2023/10/01 00:33:06;;;;;;;27.05;10.68;;;12.80;99.90;;;;;;4867906;29;20056;-64
2023/10/01 00:35:38;;;;;;;29.02;11.23;;;12.80;99.90;;;;;;4896902;29;20140;-64
2023/10/01 00:38:06;;;;;;;25.30;10.30;;;12.70;99.90;;;;;;4877407;29;20061;-64
2023/10/01 00:40:33;;;;;;;29.23;11.15;;;12.70;99.90;;;;;;4886474;29;20733;-64
2023/10/01 00:43:02;;;;;;;30.38;10.40;;;12.70;99.90;;;;;;4874092;29;20068;-64
2023/10/01 00:45:30;;;;;;;34.08;11.20;;;12.70;99.90;;;;;;4880300;29;20044;-64
2023/10/01 00:48:04;;;;;;;27.27;10.30;;;12.70;99.90;;;;;;4868046;29;20431;-64
2023/10/01 00:50:32;;;;;;;29.02;10.82;;;12.70;99.90;;;;;;4892628;29;20394;-64
2023/10/01 00:53:00;;;;;;;32.55;10.55;;;12.80;99.90;;;;;;4871821;29;20104;-64
2023/10/01 00:55:28;;;;;;;23.60;9.90;;;12.80;99.90;;;;;;4872691;29;20087;-64
2023/10/01 00:57:56;;;;;;;33.05;9.88;;;12.80;99.90;;;;;;4895599;29;20461;-64
2023/10/01 01:00:25;;;;;;;;;;;12.90;99.90;;;;;;4892911;29;20052;-64
2023/10/01 01:03:26;;;;;;;26.63;9.35;;;12.90;99.90;;;;;;4868675;29;19935;-64
2023/10/01 01:08:46;;;;;;;29.15;10.60;;;12.90;99.90;;;;;;4882165;29;20565;-64
2023/10/01 01:11:16;;;;;;;32.42;10.77;;;12.90;99.90;;;;;;4886769;29;20174;-64
2023/10/01 01:13:43;;;;;;;22.95;9.73;;;12.90;99.90;;;;;;4897186;29;20128;-64
2023/10/01 01:16:14;;;;;;;29.83;10.93;;;12.90;99.90;;;;;;4870796;29;20045;-64
2023/10/01 01:18:44;;;;;;;27.13;9.60;;;12.90;99.90;;;;;;4892688;29;20052;-64
2023/10/01 01:21:13;;;;;;;35.38;10.18;;;12.90;99.90;;;;;;4871889;29;20466;-64
2023/10/01 01:23:46;;;;;;;27.90;10.95;;;12.90;99.90;;;;;;4889571;29;20048;-64
2023/10/01 01:26:13;;;;;;;21.98;9.98;;;12.90;99.90;;;;;;4867172;29;20049;-64
2023/10/01 01:28:41;;;;;;;26.00;9.38;;;12.90;99.90;;;;;;4865231;29;20135;-64
2023/10/01 01:31:10;;;;;;;30.40;10.15;;;13.00;99.90;;;;;;4871160;29;20049;-64
2023/10/01 01:33:40;;;;;;;27.48;10.05;;;13.00;99.90;;;;;;4890876;29;20041;-64
2023/10/01 01:36:14;;;;;;;27.65;10.70;;;13.00;99.90;;;;;;4874227;29;20080;-64
2023/10/01 01:39:27;;;;;;;32.72;10.65;;;12.90;99.90;;;;;;4871892;29;20135;-64
2023/10/01 01:41:54;;;;;;;28.25;10.52;;;12.90;99.90;;;;;;4884325;29;20140;-64
2023/10/01 01:44:23;;;;;;;28.02;9.80;;;13.00;99.90;;;;;;4896695;29;20036;-64
2023/10/01 01:46:50;;;;;;;32.58;10.45;;;12.90;99.90;;;;;;4871488;29;20041;-64
2023/10/01 01:49:18;;;;;;;29.00;11.02;;;12.90;99.90;;;;;;4885395;29;20051;-64
2023/10/01 01:51:57;;;;;;;28.13;10.32;;;12.90;99.90;;;;;;4885583;29;20462;-64
2023/10/01 01:54:28;;;;;;;29.55;12.68;;;12.80;99.90;;;;;;4869257;29;20058;-64
2023/10/01 01:56:55;;;;;;;28.02;11.57;;;12.80;99.90;;;;;;4878021;29;20072;-64
2023/10/01 01:59:27;;;;;;;30.38;12.40;;;12.80;99.90;;;;;;4876154;29;20045;-64
2023/10/01 02:01:57;;;;;;;36.10;11.55;;;12.70;99.90;;;;;;4888467;29;20079;-64
2023/10/01 02:04:26;;;;;;;26.40;11.23;;;12.70;99.90;;;;;;4895885;29;20044;-64
2023/10/01 02:06:54;;;;;;;32.38;12.75;;;12.80;99.90;;;;;;4878578;29;20124;-64
2023/10/01 02:09:24;;;;;;;35.83;12.07;;;12.80;99.90;;;;;;4873992;29;20072;-63
2023/10/01 02:11:52;;;;;;;32.63;12.05;;;12.80;99.90;;;;;;4894809;29;20044;-64
2023/10/01 02:14:31;;;;;;;29.50;11.13;;;12.80;99.90;;;;;;4883050;29;20034;-64
2023/10/01 02:17:15;;;;;;;28.52;11.65;;;12.80;99.90;;;;;;4885786;29;20136;-64
2023/10/01 02:19:46;;;;;;;30.70;11.30;;;12.80;99.90;;;;;;4872624;29;20056;-64
2023/10/01 02:22:16;;;;;;;31.50;11.35;;;12.80;99.90;;;;;;4886748;29;20041;-64
2023/10/01 02:27:24;;;;;;;31.75;11.32;;;12.90;99.90;;;;;;4869928;29;20441;-64
2023/10/01 02:32:38;;;;;;;30.23;10.98;;;12.90;99.90;;;;;;4870455;29;20049;-64
2023/10/01 02:35:34;;;;;;;31.35;11.55;;;12.90;99.90;;;;;;4879647;29;20136;-64
2023/10/01 02:37:54;;;;;;;31.50;11.32;;;12.90;99.90;;;;;;4888172;29;20060;-64
2023/10/01 02:40:21;;;;;;;30.30;11.07;;;12.90;99.90;;;;;;4898575;29;20076;-64
2023/10/01 02:42:49;;;;;;;33.25;11.93;;;12.80;99.90;;;;;;4882776;29;20056;-64
2023/10/01 02:45:31;;;;;;;36.40;13.00;;;12.80;99.90;;;;;;4888744;29;20068;-64
2023/10/01 02:48:16;;;;;;;31.88;10.98;;;12.80;99.90;;;;;;4877350;29;20048;-64
2023/10/01 02:50:51;;;;;;;27.90;11.10;;;12.80;99.90;;;;;;4893823;29;20410;-64
2023/10/01 02:53:20;;;;;;;32.00;11.15;;;12.80;99.90;;;;;;4898337;29;20076;-64
2023/10/01 02:55:56;;;;;;;31.30;11.10;;;12.90;99.90;;;;;;4899390;29;20136;-64
2023/10/01 02:58:32;;;;;;;33.53;10.80;;;12.90;99.90;;;;;;4881035;29;20085;-64
2023/10/01 03:01:05;;;;;;;30.02;11.25;;;12.90;99.90;;;;;;4882375;29;20048;-64
2023/10/01 03:03:38;;;;;;;29.38;10.73;;;12.90;99.90;;;;;;4873962;29;20455;-64
2023/10/01 03:06:09;;;;;;;32.50;11.60;;;12.80;99.90;;;;;;4899089;29;20083;-64
2023/10/01 03:08:59;;;;;;;30.48;10.88;;;12.80;99.90;;;;;;4873274;29;20048;-64
2023/10/01 03:11:34;;;;;;;30.27;10.80;;;12.70;99.90;;;;;;4881588;29;20059;-64
2023/10/01 03:14:08;;;;;;;28.80;10.30;;;12.70;99.90;;;;;;4890657;29;20490;-64
2023/10/01 03:16:45;;;;;;;25.75;10.30;;;12.70;99.90;;;;;;4892669;29;20036;-64
2023/10/01 03:19:25;;;;;;;27.10;10.30;;;12.70;99.90;;;;;;4872964;29;20052;-64
2023/10/01 03:22:31;;;;;;;31.58;10.55;;;12.70;99.90;;;;;;4880940;29;20059;-64
2023/10/01 03:24:51;;;;;;;28.25;10.88;;;12.70;99.90;;;;;;4888457;29;20466;-64
2023/10/01 03:27:27;;;;;;;24.98;10.27;;;12.70;99.90;;;;;;4889470;29;20132;-64
2023/10/01 03:30:18;;;;;;;26.77;9.68;;;12.70;99.90;;;;;;4890816;29;20494;-64
2023/10/01 03:32:46;;;;;;;31.80;11.43;;;12.60;99.90;;;;;;4886490;29;20422;-64
2023/10/01 03:35:13;;;;;;;30.73;10.93;;;12.60;99.90;;;;;;4889192;29;20052;-64
2023/10/01 03:37:40;;;;;;;31.33;10.50;;;12.50;99.90;;;;;;4890826;29;20060;-64
2023/10/01 03:40:58;;;;;;;26.73;9.48;;;12.40;99.90;;;;;;4893422;29;20040;-64
2023/10/01 03:43:04;;;;;;;30.77;11.10;;;12.40;99.90;;;;;;4886881;29;20089;-64
2023/10/01 03:45:38;;;;;;;33.35;9.98;;;12.30;99.90;;;;;;4887825;29;20045;-64
2023/10/01 03:48:07;;;;;;;30.73;12.05;;;12.30;99.90;;;;;;4886200;29;20080;-64
2023/10/01 03:50:45;;;;;;;31.17;13.07;;;12.30;99.90;;;;;;4901337;29;20108;-64
2023/10/01 03:53:13;;;;;;;29.25;11.05;;;12.30;99.90;;;;;;4889406;29;20041;-64
2023/10/01 03:55:42;;;;;;;29.38;9.68;;;12.30;99.90;;;;;;4889418;29;20049;-64
2023/10/01 03:58:18;;;;;;;25.88;10.88;;;12.40;99.90;;;;;;4894619;29;20124;-64
2023/10/01 04:00:53;;;;;;;30.00;11.90;;;12.40;99.90;;;;;;4896483;29;20410;-64
2023/10/01 04:03:21;;;;;;;37.28;11.88;;;12.40;99.90;;;;;;4888111;29;20051;-64
2023/10/01 04:05:56;;;;;;;28.95;11.38;;;12.40;99.90;;;;;;4892331;29;20037;-64
2023/10/01 04:08:23;;;;;;;33.95;12.85;;;12.50;99.90;;;;;;4896344;29;20410;-64
2023/10/01 04:10:58;;;;;;;35.25;12.13;;;12.50;99.90;;;;;;4891442;29;20055;-64
2023/10/01 04:13:27;;;;;;;31.88;11.57;;;12.50;99.90;;;;;;4889192;29;20072;-64
2023/10/01 04:16:07;;;;;;;31.95;11.85;;;12.50;99.90;;;;;;4889346;29;20043;-64
2023/10/01 04:18:36;;;;;;;29.95;11.40;;;12.50;99.90;;;;;;4889874;29;20484;-64
2023/10/01 04:23:36;;;;;;;27.30;10.65;;;12.50;99.90;;;;;;4894859;29;20039;-64
2023/10/01 04:26:06;;;;;;;32.72;11.07;;;12.50;99.90;;;;;;4890748;29;20494;-64
2023/10/01 04:28:41;;;;;;;29.00;11.20;;;12.50;99.90;;;;;;4892857;29;20100;-64
2023/10/01 04:31:14;;;;;;;29.90;11.05;;;12.50;99.90;;;;;;4897585;29;20064;-64
2023/10/01 04:33:50;;;;;;;28.20;10.75;;;12.50;99.90;;;;;;4893036;29;20120;-64
2023/10/01 04:36:19;;;;;;;31.35;11.45;;;12.50;99.90;;;;;;4871014;29;20049;-64
2023/10/01 04:38:51;;;;;;;27.25;10.75;;;12.50;99.90;;;;;;4889152;29;20450;-64
2023/10/01 04:41:19;;;;;;;32.60;11.98;;;12.60;99.90;;;;;;4895535;29;20056;-64
2023/10/01 04:43:52;;;;;;;29.48;12.10;;;12.60;99.90;;;;;;4889398;29;20067;-64
2023/10/01 04:46:29;;;;;;;28.30;11.10;;;12.60;99.90;;;;;;4887110;29;20416;-64
2023/10/01 04:48:57;;;;;;;;;;;12.60;99.90;;;;;;4891170;29;20053;-64
2023/10/01 04:51:44;;;;;;;36.25;12.05;;;12.60;99.90;;;;;;4887116;29;19923;-64
2023/10/01 04:54:17;;;;;;;32.13;11.10;;;12.50;99.90;;;;;;4897000;29;20060;-64
2023/10/01 04:56:47;;;;;;;32.70;10.57;;;12.60;99.90;;;;;;4885998;29;20045;-64
2023/10/01 04:59:18;;;;;;;29.77;11.05;;;12.60;99.90;;;;;;4886654;29;20067;-64
2023/10/01 05:01:47;;;;;;;31.08;11.75;;;12.50;99.90;;;;;;4887938;29;20041;-64
2023/10/01 05:04:14;;;;;;;26.45;9.65;;;12.50;99.90;;;;;;4896942;29;20044;-64
2023/10/01 05:06:43;;;;;;;28.17;11.02;;;12.50;99.90;;;;;;4888593;29;20044;-64
2023/10/01 05:09:14;;;;;;;29.50;11.52;;;12.60;99.90;;;;;;4890072;29;20056;-64
2023/10/01 05:11:42;;;;;;;33.05;12.65;;;12.50;99.90;;;;;;4896986;29;20044;-64
2023/10/01 05:14:12;;;;;;;32.10;10.95;;;12.50;99.90;;;;;;4889113;29;20120;-64
2023/10/01 05:16:38;;;;;;;26.02;9.27;;;12.60;99.90;;;;;;4881426;29;20533;-64
2023/10/01 05:19:13;;;;;;;22.95;9.27;;;12.50;99.90;;;;;;4888748;29;20045;-64
2023/10/01 05:21:47;;;;;;;33.20;10.13;;;12.50;99.90;;;;;;4882080;29;20041;-64
2023/10/01 05:24:16;;;;;;;23.13;9.90;;;12.60;99.90;;;;;;4871652;29;20471;-64
2023/10/01 05:26:44;;;;;;;27.35;10.82;;;12.60;99.90;;;;;;4888912;29;20040;-64
2023/10/01 05:29:20;;;;;;;31.13;11.70;;;12.60;99.90;;;;;;4888674;29;20059;-64
2023/10/01 05:31:47;;;;;;;29.70;11.27;;;12.60;99.90;;;;;;4896939;29;20051;-64
2023/10/01 05:34:14;;;;;;;30.45;12.13;;;12.70;99.90;;;;;;4881053;29;20055;-64
2023/10/01 05:36:41;;;;;;;35.03;12.50;;;12.80;99.90;;;;;;4885695;29;20499;-64
2023/10/01 05:39:11;;;;;;;33.20;12.60;;;12.80;99.90;;;;;;4884280;29;20060;-64
2023/10/01 05:41:44;;;;;;;29.77;12.77;;;12.90;99.90;;;;;;4890692;29;20055;-64
2023/10/01 05:44:11;;;;;;;29.80;12.40;;;12.80;99.90;;;;;;4896667;29;20041;-64
2023/10/01 05:46:38;;;;;;;31.67;11.95;;;13.00;99.90;;;;;;4885226;29;20494;-64
2023/10/01 05:49:08;;;;;;;29.50;12.63;;;13.00;99.90;;;;;;4896177;29;20036;-64
2023/10/01 05:51:45;;;;;;;32.83;12.27;;;13.00;99.90;;;;;;4887165;29;20104;-64
2023/10/01 05:54:22;;;;;;;35.58;13.50;;;13.00;99.90;;;;;;4878833;29;20086;-64
2023/10/01 05:56:48;;;;;;;30.80;11.90;;;13.00;99.90;;;;;;4894020;29;20049;-64
2023/10/01 05:59:20;;;;;;;30.55;12.30;;;13.00;99.90;;;;;;4887292;29;20084;-64
2023/10/01 06:01:48;;;;;;;31.95;12.30;;;13.10;99.90;;;;;;4896279;29;20135;-64
2023/10/01 06:04:17;;;;;;;26.00;11.45;;;13.10;99.90;;;;;;4890377;29;20112;-64
2023/10/01 06:06:46;;;;;;;29.67;12.52;;;13.10;99.90;;;;;;4896313;29;20114;-64
2023/10/01 06:09:16;;;;;;;33.20;11.85;;;13.00;99.90;;;;;;4888545;29;20041;-64
2023/10/01 06:11:49;;;;;;;29.02;11.52;;;13.10;99.90;;;;;;4890470;29;20059;-64
2023/10/01 06:17:02;;;;;;;32.22;12.68;;;13.10;99.90;;;;;;4889004;29;20093;-64
2023/10/01 06:19:32;;;;;;;27.00;10.98;;;13.20;99.90;;;;;;4890247;29;20055;-64
2023/10/01 06:22:12;;;;;;;32.50;12.00;;;13.30;99.90;;;;;;4891602;29;20550;-64
2023/10/01 06:24:42;;;;;;;26.77;10.50;;;13.40;99.90;;;;;;4895666;29;20432;-64
2023/10/01 06:27:13;;;;;;;33.67;12.35;;;13.40;99.90;;;;;;4899990;29;20052;-64
2023/10/01 06:29:50;;;;;;;30.70;12.50;;;13.50;99.90;;;;;;4896490;29;20045;-64
2023/10/01 06:32:22;;;;;;;32.85;12.13;;;13.60;99.90;;;;;;4888792;29;20060;-64
2023/10/01 06:34:53;;;;;;;32.85;12.63;;;13.60;99.90;;;;;;4893016;29;20053;-64
2023/10/01 06:37:20;;;;;;;30.25;11.90;;;13.60;99.90;;;;;;4890653;29;20048;-64
2023/10/01 06:39:47;;;;;;;35.03;12.93;;;13.50;99.90;;;;;;4898889;29;20496;-64
2023/10/01 06:42:23;;;;;;;;;;;13.50;99.90;;;;;;4891533;29;20044;-64
2023/10/01 06:44:53;;;;;;;34.70;12.45;;;13.40;99.90;;;;;;4888844;29;19923;-64
2023/10/01 06:47:22;;;;;;;30.98;12.60;;;13.40;99.90;;;;;;4898856;29;20395;-64
2023/10/01 06:49:57;;;;;;;34.85;12.50;;;13.40;99.90;;;;;;4893423;29;20072;-64
2023/10/01 06:52:29;;;;;;;34.78;12.27;;;13.40;99.90;;;;;;4896338;29;20518;-66
2023/10/01 06:54:57;;;;;;;30.55;10.95;;;13.40;99.90;;;;;;4893521;29;20529;-64
2023/10/01 06:57:27;;;;;;;25.75;10.60;;;13.50;99.90;;;;;;4895615;29;20108;-64
2023/10/01 06:59:56;;;;;;;28.45;11.60;;;13.60;99.90;;;;;;4892285;29;20045;-64
2023/10/01 07:02:25;;;;;;;24.42;10.77;;;13.60;99.90;;;;;;4898747;29;20051;-66
2023/10/01 07:04:56;;;;;;;31.27;11.65;;;13.70;99.90;;;;;;4896862;29;20052;-64
2023/10/01 07:07:40;;;;;;;27.02;10.30;;;13.80;99.90;;;;;;4889569;29;20049;-64
2023/10/01 07:10:10;;;;;;;25.83;10.27;;;13.90;99.90;;;;;;4893565;29;20506;-64
2023/10/01 07:12:38;;;;;;;29.10;10.82;;;13.90;99.90;;;;;;4898340;29;20387;-64
2023/10/01 07:15:06;;;;;;;26.85;10.48;;;14.00;99.90;;;;;;4891270;29;20120;-64
2023/10/01 07:17:35;;;;;;;28.30;10.77;;;14.10;99.90;;;;;;4898354;29;20115;-64
2023/10/01 07:20:18;;;;;;;29.70;10.98;;;14.20;99.90;;;;;;4896151;29;20051;-67
2023/10/01 07:22:46;;;;;;;28.08;10.45;;;14.40;99.90;;;;;;4895148;29;20490;-64
2023/10/01 07:25:28;;;;;;;;;;;14.40;99.90;;;;;;4893728;29;20508;-64
2023/10/01 07:27:55;;;;;;;26.58;10.45;;;14.50;99.90;;;;;;4892662;29;19923;-64
2023/10/01 07:30:39;;;;;;;28.67;11.02;;;14.70;99.90;;;;;;4894900;29;20183;-64
2023/10/01 07:33:06;;;;;;;26.95;10.02;;;14.70;99.90;;;;;;4882470;29;20051;-64
2023/10/01 07:35:39;;;;;;;25.10;10.90;;;14.70;99.90;;;;;;4896521;29;20045;-64
2023/10/01 07:38:06;;;;;;;25.42;11.05;;;14.80;99.90;;;;;;4897959;29;20064;-65
2023/10/01 07:40:52;;;;;;;;;;;15.00;99.90;;;;;;4890793;29;20055;-65
2023/10/01 07:43:21;;;;;;;26.67;10.60;;;15.10;99.90;;;;;;4896433;29;20002;-64
2023/10/01 07:46:07;;;;;;;26.83;10.50;;;15.30;99.90;;;;;;4898045;29;20037;-64
2023/10/01 07:48:38;;;;;;;28.65;10.38;;;15.40;99.90;;;;;;4897944;29;20119;-64
2023/10/01 07:51:22;;;;;;;28.67;11.32;;;15.50;99.90;;;;;;4895665;29;20052;-64
2023/10/01 07:53:51;;;;;;;27.40;10.95;;;15.60;99.90;;;;;;4895761;29;20049;-64
2023/10/01 07:56:21;;;;;;;31.35;10.90;;;15.70;99.90;;;;;;4898051;29;20056;-64
2023/10/01 07:58:56;;;;;;;25.60;10.52;;;15.80;99.90;;;;;;4897717;29;20056;-64
2023/10/01 08:01:37;;;;;;;31.70;10.65;;;15.80;99.90;;;;;;4889422;29;20041;-64
2023/10/01 08:04:08;;;;;;;43.65;17.50;;;15.90;99.90;;;;;;4887838;29;20037;-64
2023/10/01 08:06:44;;;;;;;35.85;13.13;;;15.90;99.90;;;;;;4890791;29;20044;-64
2023/10/01 08:09:13;;;;;;;28.60;10.50;;;16.10;99.90;;;;;;4904855;29;20059;-64
2023/10/01 08:12:05;;;;;;;25.35;9.75;;;16.20;99.90;;;;;;4903629;29;20041;-66
2023/10/01 08:14:33;;;;;;;29.52;11.55;;;16.20;99.90;;;;;;4886799;29;20055;-64
2023/10/01 08:17:02;;;;;;;24.55;10.75;;;16.30;99.90;;;;;;4890076;29;20036;-64
2023/10/01 08:19:44;;;;;;;34.15;10.95;;;16.40;99.90;;;;;;4884148;29;20041;-64
2023/10/01 08:22:22;;;;;;;27.10;10.68;;;16.40;99.90;;;;;;4890245;29;20124;-64
2023/10/01 08:24:50;;;;;;;28.65;11.48;;;16.60;99.90;;;;;;4885610;29;20041;-64
2023/10/01 08:27:29;;;;;;;36.53;11.82;;;16.70;99.90;;;;;;4889120;29;20036;-64
2023/10/01 08:30:17;;;;;;;26.63;10.65;;;16.80;99.90;;;;;;4894035;29;20040;-63
2023/10/01 08:32:53;;;;;;;27.60;11.23;;;17.00;99.90;;;;;;4894831;29;20141;-63
2023/10/01 08:35:25;;;;;;;28.67;10.95;;;17.00;99.90;;;;;;4894975;29;20055;-66
2023/10/01 08:37:59;;;;;;;28.10;12.00;;;17.20;99.90;;;;;;4894228;29;20526;-66
2023/10/01 08:40:30;;;;;;;27.70;11.23;;;17.10;99.90;;;;;;4897323;29;20044;-64
2023/10/01 08:43:01;;;;;;;29.52;11.70;;;17.20;99.90;;;;;;4892215;29;20041;-64
2023/10/01 08:45:37;;;;;;;28.08;9.95;;;17.40;99.90;;;;;;4897324;29;20072;-66
2023/10/01 08:48:08;;;;;;;26.02;10.95;;;17.40;99.90;;;;;;4896640;29;20097;-64
2023/10/01 08:50:40;;;;;;;28.88;10.80;;;17.40;99.90;;;;;;4897174;29;20105;-64
2023/10/01 08:53:11;;;;;;;28.13;10.90;;;17.50;99.90;;;;;;4889260;29;20049;-64
2023/10/01 09:00:49;;;;;;;25.80;10.73;;;17.50;99.90;;;;;;4896460;29;20131;-66
2023/10/01 09:03:30;;;;;;;25.95;11.13;;;17.80;99.90;;;;;;4894807;29;20055;-64
2023/10/01 09:06:08;;;;;;;25.48;10.45;;;17.90;99.90;;;;;;4897004;29;20036;-64
2023/10/01 09:08:42;;;;;;;24.58;11.25;;;17.90;99.90;;;;;;4896517;29;20494;-64
2023/10/01 09:11:15;;;;;;;31.58;11.38;;;18.10;99.90;;;;;;4894654;29;20100;-64
2023/10/01 09:14:14;;;;;;;24.95;10.73;;;18.30;99.90;;;;;;4896788;29;20047;-64
2023/10/01 09:16:43;;;;;;;27.80;10.90;;;18.30;99.90;;;;;;4888665;29;20051;-64
2023/10/01 09:19:37;;;;;;;26.50;10.50;;;18.50;99.90;;;;;;4890197;29;20057;-66
2023/10/01 09:25:25;;;;;;;22.58;10.32;;;18.90;99.90;;;;;;4888315;29;20061;-64
2023/10/01 09:28:03;;;;;;;27.80;11.15;;;18.80;99.90;;;;;;4896246;29;20055;-64
2023/10/01 09:30:35;;;;;;;29.77;11.90;;;18.90;99.90;;;;;;4894710;29;20505;-64
2023/10/01 09:33:05;;;;;;;28.45;11.05;;;19.10;99.90;;;;;;4896166;29;20043;-65
2023/10/01 09:36:08;;;;;;;30.45;11.35;;;19.20;99.90;;;;;;4895162;29;20059;-64
2023/10/01 09:38:33;;;;;;;27.92;11.30;;;19.20;99.90;;;;;;4897441;29;20061;-65
2023/10/01 09:41:00;;;;;;;30.05;11.90;;;19.30;99.90;;;;;;4898085;29;20127;-64
2023/10/01 09:43:29;;;;;;;29.70;10.88;;;19.40;99.90;;;;;;4894678;29;20104;-64
2023/10/01 09:46:00;;;;;;;33.15;11.98;;;19.60;99.90;;;;;;4893600;29;20154;-65
2023/10/01 09:48:36;;;;;;;29.58;11.43;;;19.60;99.90;;;;;;4896852;29;20123;-64
2023/10/01 09:51:14;;;;;;;23.95;10.82;;;19.70;99.90;;;;;;4898025;29;20147;-64
2023/10/01 09:53:55;;;;;;;27.13;11.50;;;19.90;99.90;;;;;;4904285;29;20421;-64
2023/10/01 09:56:26;;;;;;;28.52;12.25;;;20.00;99.90;;;;;;4902193;29;20058;-64
2023/10/01 09:59:07;;;;;;;23.17;11.05;;;19.80;99.90;;;;;;4895502;29;20047;-65
2023/10/01 10:01:39;;;;;;;28.10;11.35;;;19.80;99.90;;;;;;4891834;29;20509;-64
2023/10/01 10:04:11;;;;;;;28.85;11.32;;;19.70;99.90;;;;;;4893535;29;20045;-63
2023/10/01 10:06:39;;;;;;;25.33;11.23;;;19.60;99.90;;;;;;4895690;29;20565;-63
2023/10/01 10:09:26;;;;;;;26.40;11.30;;;19.50;99.90;;;;;;4899448;29;20080;-64
2023/10/01 10:11:53;;;;;;;25.98;11.38;;;19.50;99.90;;;;;;4892593;29;20650;-63
2023/10/01 10:14:25;;;;;;;26.05;10.85;;;19.60;99.90;;;;;;4885454;29;20056;-63
2023/10/01 10:20:26;;;;;;;27.98;11.32;;;19.70;99.90;;;;;;4884324;29;20053;-63
2023/10/01 10:23:13;;;;;;;26.88;12.07;;;19.90;99.90;;;;;;4888314;29;20123;-63
2023/10/01 10:25:41;;;;;;;26.40;10.95;;;20.00;99.90;;;;;;4894518;29;20521;-63
2023/10/01 10:28:09;;;;;;;28.38;11.48;;;19.90;99.90;;;;;;4893970;29;20037;-62
2023/10/01 10:30:41;;;;;;;26.15;10.52;;;20.00;99.90;;;;;;4886471;29;20127;-62
2023/10/01 10:33:14;;;;;;;25.25;11.05;;;20.00;99.90;;;;;;4893991;29;20045;-64
2023/10/01 10:35:49;;;;;;;26.13;11.43;;;20.00;99.90;;;;;;4887715;29;20582;-64
2023/10/01 10:38:54;;;;;;;27.20;11.68;;;20.00;99.90;;;;;;4880461;29;20405;-64
2023/10/01 10:41:25;;;;;;;27.23;11.18;;;20.00;99.90;;;;;;4892659;29;20055;-64
2023/10/01 10:44:08;;;;;;;31.05;11.27;;;20.10;99.90;;;;;;4894628;29;20049;-63
2023/10/01 10:47:00;;;;;;;24.20;11.32;;;20.10;99.90;;;;;;4888913;29;20053;-64
2023/10/01 10:49:49;;;;;;;27.45;10.70;;;20.10;99.90;;;;;;4895388;29;20379;-63
2023/10/01 10:52:31;;;;;;;24.70;11.15;;;20.10;99.90;;;;;;4890508;29;20067;-64
2023/10/01 10:55:17;;;;;;;25.52;11.13;;;20.10;99.90;;;;;;4894859;29;20045;-63
2023/10/01 10:57:51;;;;;;;26.30;11.43;;;20.10;99.90;;;;;;4898695;29;20072;-63
2023/10/01 11:00:27;;;;;;;29.38;12.30;;;20.20;99.90;;;;;;4892143;29;20088;-63
2023/10/01 11:02:57;;;;;;;26.25;11.50;;;20.20;99.90;;;;;;4888161;29;20041;-64
2023/10/01 11:05:30;;;;;;;24.98;10.88;;;20.20;99.90;;;;;;4891162;29;20044;-64
2023/10/01 11:08:02;;;;;;;27.27;12.32;;;20.20;99.90;;;;;;4890578;29;20044;-64
2023/10/01 11:10:45;;;;;;;24.63;10.73;;;20.40;99.90;;;;;;4891174;29;20041;-62
2023/10/01 11:13:13;;;;;;;26.27;11.40;;;20.50;99.90;;;;;;4890524;29;20052;-63
2023/10/01 11:15:40;;;;;;;25.67;11.68;;;20.40;99.90;;;;;;4891103;29;20056;-63
2023/10/01 11:18:09;;;;;;;27.17;11.07;;;20.50;99.90;;;;;;4890240;29;20562;-63
2023/10/01 11:20:44;;;;;;;25.98;12.23;;;20.60;99.90;;;;;;4895895;29;20047;-64
2023/10/01 11:23:16;;;;;;;30.70;12.32;;;20.60;99.90;;;;;;4890642;29;20048;-63
2023/10/01 11:25:47;;;;;;;25.60;11.65;;;20.60;99.90;;;;;;4890891;29;20045;-63
2023/10/01 11:28:15;;;;;;;24.77;11.45;;;20.70;99.90;;;;;;4889498;29;20044;-64
2023/10/01 11:30:44;;;;;;;30.85;12.15;;;20.80;99.90;;;;;;4898714;29;20044;-63
2023/10/01 11:35:59;;;;;;;26.67;12.00;;;21.00;99.90;;;;;;4887917;29;20402;-64
2023/10/01 11:38:28;;;;;;;25.05;10.57;;;21.10;99.90;;;;;;4893875;29;20569;-63
2023/10/01 11:41:13;;;;;;;27.27;10.98;;;21.20;99.90;;;;;;4890272;29;20049;-63
2023/10/01 11:43:42;;;;;;;25.85;11.23;;;21.30;99.90;;;;;;4890712;29;20044;-64
2023/10/01 11:46:24;;;;;;;26.92;11.55;;;21.30;99.90;;;;;;4895817;29;20052;-64
2023/10/01 11:49:10;;;;;;;23.75;11.13;;;21.40;99.90;;;;;;4889633;29;20068;-64
2023/10/01 11:51:54;;;;;;;22.92;10.77;;;21.50;99.90;;;;;;4886760;29;20034;-63
2023/10/01 11:54:25;;;;;;;24.40;11.48;;;21.60;99.90;;;;;;4890828;29;20546;-64
2023/10/01 11:57:06;;;;;;;26.30;11.43;;;21.70;99.90;;;;;;4889575;29;20041;-62
2023/10/01 11:59:42;;;;;;;26.77;11.38;;;21.80;99.90;;;;;;4886805;29;20494;-64
2023/10/01 12:02:20;;;;;;;23.48;10.65;;;21.70;99.90;;;;;;4873676;29;20127;-63
2023/10/01 12:04:59;;;;;;;27.77;10.80;;;21.80;99.90;;;;;;4896765;29;20040;-64
2023/10/01 12:07:43;;;;;;;25.17;11.52;;;21.90;99.90;;;;;;4895965;29;20450;-64
2023/10/01 12:10:31;;;;;;;24.02;10.52;;;21.90;99.90;;;;;;4889798;29;20076;-64
2023/10/01 12:12:59;;;;;;;25.90;11.35;;;22.00;99.90;;;;;;4888293;29;20486;-64
2023/10/01 12:18:15;;;;;;;24.48;10.85;;;21.80;99.90;;;;;;4888977;29;20450;-63
2023/10/01 12:20:47;;;;;;;24.30;11.38;;;21.80;99.90;;;;;;4889819;29;20060;-63
2023/10/01 12:23:15;;;;;;;25.75;11.18;;;21.70;99.90;;;;;;4889119;29;20179;-64
2023/10/01 12:25:58;;;;;;;26.73;11.57;;;21.70;99.90;;;;;;4891102;29;20542;-64
2023/10/01 12:28:29;;;;;;;27.77;11.52;;;21.70;99.90;;;;;;4886182;29;20048;-64
2023/10/01 12:31:08;;;;;;;26.05;10.82;;;21.80;99.90;;;;;;4887031;29;20036;-63
2023/10/01 12:33:46;;;;;;;24.55;10.77;;;21.80;99.90;;;;;;4881851;29;20041;-64
2023/10/01 12:41:56;;;;;;;23.05;11.10;;;22.20;99.90;;;;;;4890158;29;20049;-64
2023/10/01 12:44:25;;;;;;;26.60;11.05;;;22.20;99.90;;;;;;4890077;29;20131;-64
2023/10/01 12:46:54;;;;;;;23.38;10.93;;;22.40;99.90;;;;;;4887502;29;20464;-64
2023/10/01 12:49:21;;;;;;;25.77;10.70;;;22.30;99.90;;;;;;4889216;29;20136;-64
2023/10/01 12:51:54;;;;;;;27.45;12.15;;;22.40;99.90;;;;;;4888468;29;20081;-64
2023/10/01 12:54:27;;;;;;;27.52;11.60;;;22.40;99.90;;;;;;4881712;29;20561;-64
2023/10/01 12:57:02;;;;;;;28.50;11.07;;;22.50;99.90;;;;;;4891759;29;20402;-63
2023/10/01 12:59:38;;;;;;;26.08;11.60;;;22.40;99.90;;;;;;4892390;29;20040;-63
2023/10/01 13:07:45;;;;;;;24.02;10.48;;;22.30;99.90;;;;;;4884523;29;20044;-64
2023/10/01 13:10:13;;;;;;;25.67;10.73;;;22.30;99.90;;;;;;4869677;29;20053;-63
2023/10/01 13:12:56;;;;;;;26.88;11.55;;;22.20;99.90;;;;;;4890780;29;20043;-64
2023/10/01 13:15:29;;;;;;;23.63;10.32;;;22.30;99.90;;;;;;4901365;29;20080;-64
2023/10/01 13:18:00;;;;;;;29.65;11.98;;;22.40;99.90;;;;;;4901379;29;20051;-63
2023/10/01 13:20:29;;;;;;;23.52;10.48;;;22.40;99.90;;;;;;4893396;29;20597;-64
2023/10/01 13:22:59;;;;;;;25.10;10.63;;;22.30;99.90;;;;;;4895337;29;20502;-63
2023/10/01 13:25:27;;;;;;;26.73;11.52;;;22.20;99.90;;;;;;4894232;29;20533;-63
2023/10/01 13:28:06;;;;;;;23.52;10.90;;;22.10;99.90;;;;;;4891421;29;20041;-63
2023/10/01 13:33:25;;;;;;;26.77;10.90;;;22.00;99.90;;;;;;4895319;29;20521;-62
2023/10/01 13:36:12;;;;;;;22.60;10.25;;;22.00;99.90;;;;;;4889762;29;20056;-62
2023/10/01 13:39:13;;;;;;;30.60;11.13;;;21.90;99.90;;;;;;4885399;29;20049;-63
2023/10/01 14:08:56;;;;;;;23.38;10.63;;;22.10;99.90;;;;;;4890304;29;20513;-64
2023/10/01 14:11:39;;;;;;;28.50;11.43;;;22.10;99.90;;;;;;4891376;29;20582;-64
2023/10/01 14:14:08;;;;;;;23.95;10.15;;;22.00;99.90;;;;;;4888515;29;20088;-63